Time;durP1;ratioP1;P1;durP2;ratioP2;P2;SDS_P1;SDS_P2;PMS_P1;PMS_P2;Temp;Humidity;BMP_temperature;BMP_pressure;BME280_temperature;BME280_humidity;BME280_pressure;Samples;Min_cycle;Max_cycle;Signal;HPM_P1;HPM_P2
2021/12/07 00:00:12;;;;;;;45.50;21.10;;;;;;;-0.89;82.11;98256.66;105786;1314;22610;-76
2021/12/07 00:02:41;;;;;;;44.30;20.80;;;;;;;-0.89;82.31;98258.55;105635;1317;25243;-76
2021/12/07 00:05:08;;;;;;;42.80;20.20;;;;;;;-0.90;82.69;98257.52;105829;1317;22614;-77
2021/12/07 00:07:35;;;;;;;46.20;21.80;;;;;;;-0.93;82.81;98257.77;105740;1316;22636;-76
2021/12/07 00:10:03;;;;;;;49.00;21.00;;;;;;;-0.95;82.66;98260.58;105765;1317;22639;-76
2021/12/07 00:12:35;;;;;;;40.90;20.30;;;;;;;-0.98;82.52;98258.95;105797;1316;24202;-76
2021/12/07 00:15:03;;;;;;;49.00;22.20;;;;;;;-0.98;82.28;98266.11;105887;1316;23378;-76
2021/12/07 00:17:31;;;;;;;50.70;22.80;;;;;;;-0.95;82.27;98268.77;105763;1316;22741;-76
2021/12/07 00:20:01;;;;;;;47.20;22.00;;;;;;;-0.91;82.37;98268.02;106119;1317;22631;-77
2021/12/07 00:22:28;;;;;;;48.90;22.90;;;;;;;-0.89;82.91;98264.02;105760;1316;22643;-76
2021/12/07 00:24:55;;;;;;;50.60;22.00;;;;;;;-0.95;82.88;98261.25;105749;1316;22582;-76
2021/12/07 00:27:22;;;;;;;46.20;22.40;;;;;;;-0.98;82.69;98259.11;105732;1318;22596;-77
2021/12/07 00:29:49;;;;;;;49.50;22.50;;;;;;;-1.00;82.50;98256.95;105683;1317;22584;-76
2021/12/07 00:32:24;;;;;;;45.30;22.00;;;;;;;-1.00;82.32;98265.32;105735;1317;22579;-76
2021/12/07 00:37:29;;;;;;;46.30;22.10;;;;;;;-0.91;82.38;98276.89;105650;1317;22618;-76
2021/12/07 00:39:56;;;;;;;47.90;22.60;;;;;;;-0.90;82.60;98281.98;105771;1317;25255;-76
2021/12/07 00:42:24;;;;;;;49.10;22.80;;;;;;;-0.90;82.69;98284.23;105735;1317;22708;-76
2021/12/07 00:44:51;;;;;;;46.40;22.60;;;;;;;-0.91;82.64;98280.14;105598;1317;22582;-77
2021/12/07 00:47:18;;;;;;;45.20;22.10;;;;;;;-0.93;82.36;98286.33;105762;1316;22577;-77
2021/12/07 00:49:45;;;;;;;49.30;21.90;;;;;;;-0.95;82.24;98285.87;105783;1314;25446;-76
2021/12/07 00:52:12;;;;;;;48.10;21.70;;;;;;;-0.95;82.06;98283.14;105806;1317;24398;-76
2021/12/07 00:54:40;;;;;;;50.10;22.00;;;;;;;-0.91;81.95;98277.92;105770;1316;23902;-76
2021/12/07 00:57:07;;;;;;;44.30;21.70;;;;;;;-0.89;82.28;98273.77;105716;1316;22878;-76
2021/12/07 00:59:35;;;;;;;47.40;22.20;;;;;;;-0.92;82.67;98275.20;105763;1316;23398;-76
2021/12/07 01:02:03;;;;;;;48.90;22.80;;;;;;;-0.98;82.66;98273.80;106258;1311;22576;-76
2021/12/07 01:04:31;;;;;;;48.40;21.70;;;;;;;-1.03;82.54;98270.67;105807;1316;22716;-76
2021/12/07 01:07:05;;;;;;;45.70;21.80;;;;;;;-1.05;82.29;98268.18;105734;1316;22604;-76
2021/12/07 01:25:58;;;;;;;43.40;19.80;;;;;;;-1.12;82.13;98251.26;105725;1319;25399;-76
2021/12/07 01:43:56;;;;;;;43.10;20.90;;;;;;;-1.25;82.44;98237.39;105776;1311;23387;-75
2021/12/07 01:52:09;;;;;;;43.80;19.50;;;;;;;-1.14;82.57;98236.95;105816;1316;25090;-75
2021/12/07 02:00:14;;;;;;;53.50;23.60;;;;;;;-1.25;82.28;98218.09;106013;1314;24220;-75
2021/12/07 02:02:42;;;;;;;50.50;23.00;;;;;;;-1.28;82.02;98215.76;105976;1318;22649;-76
2021/12/07 02:05:10;;;;;;;58.90;24.40;;;;;;;-1.27;82.14;98217.28;106001;1320;25543;-76
2021/12/07 02:07:37;;;;;;;65.80;26.40;;;;;;;-1.23;82.33;98219.55;106005;1319;22579;-76
2021/12/07 02:10:11;;;;;;;58.40;25.10;;;;;;;-1.23;82.61;98225.37;106008;1318;22574;-75
2021/12/07 02:12:46;;;;;;;57.30;24.10;;;;;;;-1.24;82.69;98226.92;106048;1319;22562;-75
2021/12/07 02:15:20;;;;;;;49.20;21.90;;;;;;;-1.23;82.52;98223.50;105989;1318;22569;-75
2021/12/07 02:17:50;;;;;;;47.60;22.70;;;;;;;-1.24;82.28;98224.36;106007;1319;22582;-76
2021/12/07 02:20:19;;;;;;;49.10;21.30;;;;;;;-1.25;82.09;98220.45;105980;1319;24988;-74
2021/12/07 02:22:46;;;;;;;55.60;23.20;;;;;;;-1.19;82.00;98218.28;105990;1319;22765;-74
2021/12/07 02:25:16;;;;;;;49.00;22.40;;;;;;;-1.20;82.15;98220.52;105990;1317;22642;-75
2021/12/07 02:27:45;;;;;;;48.20;23.10;;;;;;;-1.20;82.47;98220.36;106020;1316;22581;-75
2021/12/07 02:30:16;;;;;;;52.80;23.10;;;;;;;-1.23;82.45;98217.17;106021;1317;22575;-74
2021/12/07 02:32:44;;;;;;;51.20;22.50;;;;;;;-1.24;82.42;98215.66;106041;1317;22578;-74
2021/12/07 02:35:14;;;;;;;55.40;23.70;;;;;;;-1.26;82.14;98215.37;106031;1314;22575;-75
2021/12/07 02:37:41;;;;;;;62.90;25.80;;;;;;;-1.26;82.03;98218.30;106046;1317;25290;-74
2021/12/07 02:40:09;;;;;;;64.80;26.30;;;;;;;-1.21;81.99;98213.20;106031;1316;22560;-75
2021/12/07 02:42:36;;;;;;;57.10;25.40;;;;;;;-1.17;82.12;98210.89;106048;1317;22586;-75
2021/12/07 02:45:05;;;;;;;52.70;23.70;;;;;;;-1.17;82.59;98213.45;106027;1316;22583;-75
2021/12/07 02:47:34;;;;;;;50.20;22.40;;;;;;;-1.21;82.62;98211.66;106030;1310;22588;-75
2021/12/07 02:50:03;;;;;;;56.20;22.90;;;;;;;-1.23;82.47;98212.22;106021;1315;22564;-75
2021/12/07 02:52:30;;;;;;;56.60;23.80;;;;;;;-1.25;82.15;98215.33;106029;1316;22579;-75
2021/12/07 02:54:58;;;;;;;57.00;22.20;;;;;;;-1.28;81.98;98213.37;106032;1316;24431;-76
2021/12/07 02:57:25;;;;;;;57.60;22.70;;;;;;;-1.26;81.91;98211.95;106033;1316;22610;-76
2021/12/07 03:00:00;;;;;;;51.00;22.50;;;;;;;-1.26;82.30;98211.10;106024;1316;22562;-76
2021/12/07 03:02:30;;;;;;;48.50;21.40;;;;;;;-1.28;82.59;98210.64;106024;1316;22711;-76
2021/12/07 03:05:07;;;;;;;48.10;21.60;;;;;;;-1.30;82.66;98211.36;106002;1316;25469;-76
2021/12/07 03:08:16;;;;;;;51.90;22.50;;;;;;;-1.32;82.59;98207.48;106029;1317;22630;-76
2021/12/07 03:27:07;;;;;;;50.20;20.90;;;;;;;-1.23;82.41;98224.34;105861;1319;24012;-75
2021/12/07 03:29:34;;;;;;;54.70;22.10;;;;;;;-1.26;82.32;98227.49;105965;1318;22583;-75
2021/12/07 03:32:01;;;;;;;58.40;22.20;;;;;;;-1.28;82.19;98227.22;105972;1317;22584;-77
2021/12/07 03:34:28;;;;;;;60.60;23.30;;;;;;;-1.26;82.08;98227.48;106087;1311;22587;-76
2021/12/07 03:36:55;;;;;;;56.40;22.20;;;;;;;-1.25;82.31;98228.64;106147;1316;24294;-76
2021/12/07 03:39:22;;;;;;;51.20;22.30;;;;;;;-1.26;82.57;98231.45;106140;1317;22582;-76
2021/12/07 03:41:51;;;;;;;58.90;22.70;;;;;;;-1.29;82.70;98235.95;106119;1316;24221;-76
2021/12/07 03:44:18;;;;;;;55.20;21.90;;;;;;;-1.32;82.59;98230.38;106116;1316;22574;-75
2021/12/07 03:46:45;;;;;;;49.80;22.70;;;;;;;-1.34;82.45;98234.33;106095;1317;24507;-75
2021/12/07 03:49:13;;;;;;;57.70;21.90;;;;;;;-1.35;82.13;98234.03;106140;1316;22583;-75
2021/12/07 03:51:40;;;;;;;61.20;24.20;;;;;;;-1.36;82.22;98234.42;106125;1317;25421;-75
2021/12/07 03:54:07;;;;;;;61.70;24.00;;;;;;;-1.37;82.55;98239.05;106080;1315;22579;-76
2021/12/07 03:56:34;;;;;;;53.80;21.90;;;;;;;-1.36;82.75;98240.39;106140;1316;22574;-76
2021/12/07 03:59:02;;;;;;;60.30;25.30;;;;;;;-1.35;82.94;98245.98;106040;1316;22606;-76
2021/12/07 04:01:29;;;;;;;54.40;23.30;;;;;;;-1.32;82.95;98246.95;106063;1319;22571;-76
2021/12/07 04:03:56;;;;;;;73.90;29.10;;;;;;;-1.32;82.90;98252.75;106115;1316;25582;-76
2021/12/07 04:06:23;;;;;;;85.70;33.10;;;;;;;-1.31;82.69;98254.95;106110;1316;22601;-76
2021/12/07 04:08:50;;;;;;;85.90;32.50;;;;;;;-1.28;82.34;98258.30;106091;1317;22658;-76
2021/12/07 04:11:18;;;;;;;63.40;24.10;;;;;;;-1.26;82.21;98259.09;106078;1317;22578;-76
2021/12/07 04:13:45;;;;;;;62.40;26.80;;;;;;;-1.23;82.41;98258.01;106088;1317;22665;-76
2021/12/07 04:16:14;;;;;;;53.60;23.00;;;;;;;-1.21;82.83;98258.82;106128;1317;22655;-76
2021/12/07 04:18:41;;;;;;;56.00;24.10;;;;;;;-1.25;82.96;98259.95;106094;1315;22639;-76
2021/12/07 04:21:08;;;;;;;60.50;26.40;;;;;;;-1.25;82.78;98263.02;106099;1316;22581;-76
2021/12/07 04:23:37;;;;;;;60.10;25.70;;;;;;;-1.25;82.54;98262.65;106082;1316;23304;-76
2021/12/07 04:26:09;;;;;;;61.00;25.50;;;;;;;-1.28;82.23;98266.67;105889;1318;22671;-76
2021/12/07 04:28:37;;;;;;;62.80;25.40;;;;;;;-1.30;82.05;98265.70;105983;1319;22573;-76
2021/12/07 04:31:04;;;;;;;61.60;23.50;;;;;;;-1.33;81.85;98266.27;105983;1317;22795;-76
2021/12/07 04:33:33;;;;;;;62.20;23.60;;;;;;;-1.30;81.84;98269.12;106094;1316;22581;-76
2021/12/07 04:36:01;;;;;;;59.10;23.80;;;;;;;-1.29;81.87;98270.27;106109;1314;22581;-76
2021/12/07 04:38:28;;;;;;;61.00;24.20;;;;;;;-1.26;82.18;98275.02;106064;1317;22580;-76
2021/12/07 04:40:55;;;;;;;63.20;26.70;;;;;;;-1.27;82.21;98275.88;106097;1316;22709;-75
2021/12/07 04:43:22;;;;;;;57.10;23.60;;;;;;;-1.26;82.07;98271.26;106118;1316;22559;-75
2021/12/07 04:46:38;;;;;;;59.90;23.40;;;;;;;-1.27;81.90;98269.90;106074;1317;24435;-75
2021/12/07 04:59:30;;;;;;;60.50;23.50;;;;;;;-1.35;81.24;98271.80;106045;1317;22579;-75
2021/12/07 05:01:56;;;;;;;61.60;23.50;;;;;;;-1.33;81.46;98269.51;105970;1319;22690;-75
2021/12/07 05:04:28;;;;;;;56.40;23.80;;;;;;;-1.32;81.81;98264.36;106108;1317;22640;-75
2021/12/07 05:07:04;;;;;;;67.90;28.10;;;;;;;-1.32;81.87;98262.66;106109;1317;22579;-75
2021/12/07 05:10:07;;;;;;;58.10;23.80;;;;;;;-1.31;81.78;98263.66;106072;1317;22570;-76
2021/12/07 05:12:34;;;;;;;56.10;22.90;;;;;;;-1.32;81.49;98266.77;106080;1316;22562;-75
2021/12/07 05:15:13;;;;;;;57.50;20.60;;;;;;;-1.34;81.41;98267.31;106097;1317;22742;-75
2021/12/07 05:18:01;;;;;;;56.80;22.80;;;;;;;-1.34;81.04;98266.99;106087;1316;22583;-75
2021/12/07 05:39:39;;;;;;;72.10;28.30;;;;;;;-1.46;80.95;98254.13;106118;1316;22569;-76
2021/12/07 05:42:06;;;;;;;66.80;28.10;;;;;;;-1.44;80.99;98253.55;106074;1317;22594;-75
2021/12/07 05:44:33;;;;;;;59.20;22.60;;;;;;;-1.42;81.26;98255.05;106077;1317;22593;-75
2021/12/07 05:47:02;;;;;;;62.90;26.60;;;;;;;-1.42;81.61;98253.84;106097;1317;22585;-75
2021/12/07 05:49:30;;;;;;;66.80;26.20;;;;;;;-1.45;81.69;98250.68;106072;1316;22587;-75
2021/12/07 05:51:57;;;;;;;56.70;23.80;;;;;;;-1.44;81.68;98249.28;106056;1317;24527;-75
2021/12/07 05:54:24;;;;;;;59.70;23.80;;;;;;;-1.42;81.56;98246.84;106094;1314;24212;-75
2021/12/07 05:56:51;;;;;;;58.70;23.50;;;;;;;-1.43;81.45;98248.23;106101;1316;22579;-75
2021/12/07 05:59:18;;;;;;;48.10;21.40;;;;;;;-1.42;81.07;98243.25;106074;1317;22589;-75
2021/12/07 06:01:46;;;;;;;57.70;24.00;;;;;;;-1.43;81.04;98244.84;105991;1319;22586;-75
2021/12/07 06:04:13;;;;;;;62.80;22.80;;;;;;;-1.42;81.01;98247.34;105983;1318;22575;-75
2021/12/07 06:06:40;;;;;;;53.90;22.00;;;;;;;-1.40;81.14;98250.05;106098;1316;25440;-75
2021/12/07 06:09:07;;;;;;;55.00;22.60;;;;;;;-1.40;81.45;98254.15;105832;1317;23058;-76
2021/12/07 06:11:34;;;;;;;65.80;28.40;;;;;;;-1.42;81.58;98254.17;105852;1317;22617;-76
2021/12/07 06:14:01;;;;;;;62.10;26.60;;;;;;;-1.41;81.59;98253.65;105827;1316;22608;-76
2021/12/07 06:16:30;;;;;;;58.10;25.30;;;;;;;-1.42;81.37;98252.31;105818;1317;24588;-76
2021/12/07 06:18:59;;;;;;;52.00;21.90;;;;;;;-1.42;81.18;98248.21;105826;1317;22580;-75
2021/12/07 06:21:26;;;;;;;55.30;22.30;;;;;;;-1.43;81.07;98248.94;105915;1316;22579;-76
2021/12/07 06:23:53;;;;;;;59.20;22.40;;;;;;;-1.39;81.09;98251.57;105836;1317;25286;-76
2021/12/07 06:26:21;;;;;;;63.80;26.40;;;;;;;-1.36;81.29;98252.18;105721;1319;22604;-76
2021/12/07 06:28:48;;;;;;;61.90;25.90;;;;;;;-1.34;81.49;98257.77;105767;1320;25318;-75
2021/12/07 06:31:15;;;;;;;69.70;31.00;;;;;;;-1.35;81.58;98261.70;105739;1316;22582;-74
2021/12/07 06:33:42;;;;;;;64.90;27.10;;;;;;;-1.35;81.45;98260.88;105847;1316;22604;-75
2021/12/07 06:36:10;;;;;;;75.60;30.30;;;;;;;-1.34;81.20;98268.18;105851;1317;24886;-74
2021/12/07 06:38:37;;;;;;;65.50;28.80;;;;;;;-1.35;81.11;98266.86;106281;1317;22613;-74
2021/12/07 06:41:04;;;;;;;67.00;28.20;;;;;;;-1.35;81.11;98267.54;105839;1314;22633;-76
2021/12/07 06:43:32;;;;;;;83.60;30.30;;;;;;;-1.30;81.04;98271.17;106297;1317;22605;-74
2021/12/07 06:45:59;;;;;;;82.80;31.80;;;;;;;-1.27;81.32;98273.81;105865;1317;22608;-74
2021/12/07 06:48:26;;;;;;;93.60;34.20;;;;;;;-1.25;81.54;98275.83;105777;1316;22667;-74
2021/12/07 06:50:53;;;;;;;86.20;32.40;;;;;;;-1.23;81.80;98282.09;105625;1317;22590;-74
2021/12/07 06:53:21;;;;;;;87.00;33.10;;;;;;;-1.21;81.62;98288.38;105804;1316;22591;-75
2021/12/07 06:55:48;;;;;;;72.10;29.20;;;;;;;-1.19;81.48;98292.79;105846;1317;22672;-74
2021/12/07 06:58:15;;;;;;;64.70;27.80;;;;;;;-1.20;81.29;98292.27;105843;1316;22681;-75
2021/12/07 07:00:43;;;;;;;68.40;28.50;;;;;;;-1.19;81.12;98293.98;105903;1314;22579;-75
2021/12/07 07:03:10;;;;;;;72.00;28.40;;;;;;;-1.17;81.07;98297.69;105281;1316;779972;-74
2021/12/07 07:05:37;;;;;;;85.50;31.50;;;;;;;-1.12;80.85;98299.77;105869;1317;24247;-75
2021/12/07 07:08:04;;;;;;;75.20;29.00;;;;;;;-1.12;81.01;98301.67;105841;1316;22564;-75
2021/12/07 07:10:31;;;;;;;79.90;31.60;;;;;;;-1.13;81.15;98299.30;105842;1317;22584;-75
2021/12/07 07:12:58;;;;;;;92.80;34.70;;;;;;;-1.13;81.35;98297.92;105870;1316;22574;-76
2021/12/07 07:15:25;;;;;;;96.80;36.10;;;;;;;-1.14;81.11;98300.33;105886;1317;22587;-76
2021/12/07 07:17:52;;;;;;;65.60;26.50;;;;;;;-1.18;80.79;98303.85;105878;1317;22564;-75
2021/12/07 07:20:19;;;;;;;68.00;26.30;;;;;;;-1.22;80.71;98307.70;105854;1317;22592;-75
2021/12/07 07:22:46;;;;;;;74.70;31.00;;;;;;;-1.24;80.62;98306.89;105865;1317;22574;-75
2021/12/07 07:25:14;;;;;;;67.70;28.90;;;;;;;-1.25;80.47;98306.23;105841;1317;22579;-75
2021/12/07 07:27:42;;;;;;;76.80;29.90;;;;;;;-1.21;80.51;98307.70;105892;1316;23676;-74
2021/12/07 07:30:11;;;;;;;72.70;27.70;;;;;;;-1.15;80.78;98310.11;105839;1314;22567;-74
2021/12/07 07:32:38;;;;;;;92.70;44.90;;;;;;;-1.16;80.99;98316.09;105838;1317;26972;-74
2021/12/07 07:35:08;;;;;;;70.90;32.20;;;;;;;-1.17;81.04;98315.48;105873;1317;22647;-73
2021/12/07 07:37:36;;;;;;;63.70;27.20;;;;;;;-1.19;80.83;98312.92;105827;1317;24527;-74
2021/12/07 07:40:11;;;;;;;65.80;31.00;;;;;;;-1.19;80.66;98315.00;105841;1317;24562;-74
2021/12/07 07:42:38;;;;;;;97.30;38.90;;;;;;;-1.18;80.30;98315.31;105911;1317;22604;-74
2021/12/07 07:45:05;;;;;;;84.00;37.50;;;;;;;-1.20;80.20;98315.00;105818;1316;22610;-75
2021/12/07 07:47:32;;;;;;;95.20;38.10;;;;;;;-1.19;80.00;98315.84;105882;1317;24065;-75
2021/12/07 07:50:00;;;;;;;75.50;30.40;;;;;;;-1.16;80.15;98316.63;105847;1317;22723;-76
2021/12/07 07:52:27;;;;;;;73.60;31.80;;;;;;;-1.14;80.33;98312.11;105892;1317;24749;-75
2021/12/07 07:54:54;;;;;;;75.00;33.00;;;;;;;-1.10;80.73;98312.05;105872;1316;24742;-76
2021/12/07 07:57:21;;;;;;;67.10;29.60;;;;;;;-1.09;80.82;98312.38;105808;1314;22582;-75
2021/12/07 07:59:48;;;;;;;77.40;33.80;;;;;;;-1.08;80.57;98313.55;105861;1317;22639;-76
2021/12/07 08:02:15;;;;;;;74.70;32.90;;;;;;;-1.09;80.29;98314.77;105736;1317;22559;-76
2021/12/07 08:04:42;;;;;;;91.10;40.50;;;;;;;-1.11;80.16;98316.01;105858;1315;22578;-76
2021/12/07 08:07:09;;;;;;;71.00;28.60;;;;;;;-1.09;80.03;98318.70;106020;1316;22675;-76
2021/12/07 08:09:36;;;;;;;69.70;27.10;;;;;;;-1.04;80.13;98316.70;105840;1316;24445;-77
2021/12/07 08:12:05;;;;;;;63.10;28.60;;;;;;;-0.99;80.31;98317.76;105901;1317;22574;-77
2021/12/07 08:14:33;;;;;;;59.70;27.30;;;;;;;-0.96;80.71;98315.47;105822;1317;25367;-76
2021/12/07 08:17:01;;;;;;;62.10;28.50;;;;;;;-0.96;80.66;98311.00;105787;1317;22598;-75
2021/12/07 08:19:28;;;;;;;61.00;28.00;;;;;;;-0.97;80.12;98314.29;105806;1317;22719;-75
2021/12/07 08:21:55;;;;;;;90.90;37.30;;;;;;;-1.00;79.79;98314.04;105820;1317;22691;-76
2021/12/07 08:24:21;;;;;;;97.60;43.70;;;;;;;-1.05;79.63;98316.03;105788;1317;23023;-75
2021/12/07 08:26:48;;;;;;;60.70;27.90;;;;;;;-1.09;79.64;98319.03;105717;1319;22746;-75
2021/12/07 08:29:15;;;;;;;57.30;24.60;;;;;;;-1.10;79.62;98324.19;105714;1319;22596;-75
2021/12/07 08:31:43;;;;;;;66.40;27.10;;;;;;;-1.06;79.71;98327.48;105662;1318;22582;-75
2021/12/07 08:34:10;;;;;;;54.70;24.50;;;;;;;-1.02;79.96;98329.98;105815;1316;22598;-76
2021/12/07 08:36:37;;;;;;;74.10;34.00;;;;;;;-1.01;80.32;98335.26;105855;1316;22613;-76
2021/12/07 08:39:07;;;;;;;48.40;22.40;;;;;;;-1.04;80.27;98336.51;105841;1317;22641;-77
2021/12/07 08:41:34;;;;;;;91.60;51.20;;;;;;;-1.06;79.86;98337.58;105849;1316;22586;-75
2021/12/07 08:44:01;;;;;;;166.10;49.70;;;;;;;-1.08;79.77;98335.43;105813;1317;23160;-76
2021/12/07 08:46:28;;;;;;;78.00;36.50;;;;;;;-1.10;79.68;98335.30;105863;1314;22579;-76
2021/12/07 08:48:55;;;;;;;97.40;50.60;;;;;;;-1.09;79.72;98335.29;105877;1317;25271;-75
2021/12/07 08:51:26;;;;;;;105.50;49.10;;;;;;;-1.05;79.65;98336.86;105852;1317;22616;-77
2021/12/07 08:54:19;;;;;;;68.00;32.60;;;;;;;-1.00;80.00;98341.71;105674;1317;22586;-75
2021/12/07 08:59:45;;;;;;;112.80;51.70;;;;;;;-0.95;80.41;98337.66;105839;1317;22646;-74
2021/12/07 09:02:17;;;;;;;96.60;45.70;;;;;;;-0.92;79.88;98338.63;105783;1317;22572;-76
2021/12/07 09:04:45;;;;;;;90.30;40.60;;;;;;;-0.95;79.57;98336.63;105745;1317;25603;-75
2021/12/07 09:07:13;;;;;;;76.10;35.00;;;;;;;-0.98;79.37;98335.50;105875;1317;23484;-75
2021/12/07 09:09:43;;;;;;;76.40;36.60;;;;;;;-1.00;79.43;98334.73;105829;1317;22697;-75
2021/12/07 09:12:13;;;;;;;65.90;31.10;;;;;;;-1.01;79.17;98336.11;105844;1316;25300;-75
2021/12/07 09:14:42;;;;;;;65.40;29.30;;;;;;;-1.03;79.24;98335.63;105865;1317;22681;-76
2021/12/07 09:17:10;;;;;;;50.80;23.50;;;;;;;-0.94;79.29;98336.10;105847;1316;22620;-76
2021/12/07 09:19:38;;;;;;;62.10;29.10;;;;;;;-0.86;79.68;98335.05;105833;1316;22738;-76
2021/12/07 09:22:06;;;;;;;84.00;35.80;;;;;;;-0.84;79.84;98334.49;105837;1316;22648;-76
2021/12/07 09:24:34;;;;;;;71.80;33.90;;;;;;;-0.83;79.88;98336.52;105751;1317;22580;-76
2021/12/07 09:27:02;;;;;;;49.20;24.60;;;;;;;-0.81;79.60;98333.73;105663;1319;24339;-77
2021/12/07 09:29:29;;;;;;;56.00;25.90;;;;;;;-0.82;79.16;98332.41;105752;1319;24870;-75
2021/12/07 09:31:57;;;;;;;62.10;27.70;;;;;;;-0.87;79.07;98332.16;105704;1319;22559;-75
2021/12/07 09:34:24;;;;;;;73.50;33.20;;;;;;;-0.88;79.04;98329.78;105778;1317;22575;-75
2021/12/07 09:36:51;;;;;;;76.60;30.60;;;;;;;-0.87;78.89;98328.23;105806;1317;22686;-76
2021/12/07 09:39:19;;;;;;;87.80;40.90;;;;;;;-0.83;79.02;98329.69;105846;1317;22583;-77
2021/12/07 09:41:47;;;;;;;66.50;31.30;;;;;;;-0.78;79.32;98328.54;105852;1317;22599;-77
2021/12/07 09:44:14;;;;;;;55.70;26.20;;;;;;;-0.75;79.83;98324.70;105825;1317;22573;-77
2021/12/07 09:46:42;;;;;;;69.00;32.50;;;;;;;-0.76;79.82;98325.75;105828;1317;22696;-79
2021/12/07 09:49:10;;;;;;;69.70;35.20;;;;;;;-0.73;79.65;98324.83;105819;1317;22575;-74
2021/12/07 09:51:39;;;;;;;59.10;29.50;;;;;;;-0.72;79.20;98327.35;105877;1316;22617;-74
2021/12/07 09:54:08;;;;;;;72.50;36.60;;;;;;;-0.71;79.11;98326.14;105836;1317;22586;-76
2021/12/07 09:56:37;;;;;;;66.60;32.70;;;;;;;-0.73;79.00;98325.01;105814;1317;22589;-76
2021/12/07 09:59:06;;;;;;;97.50;40.30;;;;;;;-0.72;79.22;98327.02;105838;1316;22727;-76
2021/12/07 10:01:34;;;;;;;81.10;33.90;;;;;;;-0.65;79.09;98322.74;105842;1315;22559;-76
2021/12/07 10:04:02;;;;;;;140.60;56.40;;;;;;;-0.61;79.24;98321.25;105781;1317;22699;-76
2021/12/07 10:06:29;;;;;;;92.60;40.20;;;;;;;-0.56;79.61;98320.98;105751;1319;24242;-76
2021/12/07 10:08:56;;;;;;;113.30;52.40;;;;;;;-0.54;79.61;98322.31;105853;1317;22639;-76
2021/12/07 10:11:23;;;;;;;150.70;75.20;;;;;;;-0.56;79.21;98318.26;105851;1317;22624;-75
2021/12/07 10:13:52;;;;;;;96.00;46.60;;;;;;;-0.59;79.00;98321.23;105866;1316;23036;-76
2021/12/07 10:16:22;;;;;;;76.20;37.50;;;;;;;-0.62;78.95;98319.25;105826;1317;22583;-74
2021/12/07 10:18:50;;;;;;;70.70;31.90;;;;;;;-0.64;78.86;98323.08;105880;1316;22589;-75
2021/12/07 10:21:25;;;;;;;166.30;88.00;;;;;;;-0.66;78.65;98318.83;106067;1317;26034;-75
2021/12/07 10:24:02;;;;;;;80.40;36.00;;;;;;;-0.66;78.54;98315.93;105938;1317;22582;-74
2021/12/07 10:26:42;;;;;;;68.50;30.70;;;;;;;-0.63;78.55;98316.38;105882;1318;22582;-74
2021/12/07 10:29:12;;;;;;;65.10;30.70;;;;;;;-0.63;78.64;98317.39;105945;1319;22635;-76
2021/12/07 10:31:45;;;;;;;90.00;37.40;;;;;;;-0.66;78.92;98317.30;105946;1320;24341;-76
2021/12/07 10:34:16;;;;;;;105.70;45.10;;;;;;;-0.68;79.09;98316.83;105948;1317;22683;-75
2021/12/07 10:36:49;;;;;;;80.40;35.50;;;;;;;-0.69;79.09;98320.09;106066;1316;22681;-75
2021/12/07 10:39:25;;;;;;;68.20;30.00;;;;;;;-0.67;78.81;98319.89;106108;1317;24309;-75
2021/12/07 10:41:57;;;;;;;54.10;25.40;;;;;;;-0.67;78.71;98321.94;106030;1316;22568;-75
2021/12/07 10:44:33;;;;;;;79.00;35.70;;;;;;;-0.69;78.60;98324.73;106020;1317;22745;-75
2021/12/07 10:47:03;;;;;;;64.50;28.20;;;;;;;-0.70;78.20;98324.40;106015;1317;22637;-75
2021/12/07 10:49:38;;;;;;;60.70;26.60;;;;;;;-0.69;78.41;98323.52;106011;1317;22648;-75
2021/12/07 10:52:29;;;;;;;68.50;28.10;;;;;;;-0.68;78.80;98324.70;105854;1318;22776;-75
2021/12/07 10:55:02;;;;;;;52.90;23.20;;;;;;;-0.68;79.10;98322.64;105811;1314;23069;-75
2021/12/07 10:57:43;;;;;;;63.00;25.70;;;;;;;-0.69;79.27;98321.98;105805;1316;22607;-76
2021/12/07 11:00:20;;;;;;;63.30;29.20;;;;;;;-0.72;79.00;98318.33;105769;1317;25473;-76
2021/12/07 11:02:58;;;;;;;89.60;38.90;;;;;;;-0.76;78.61;98317.02;105785;1317;22577;-75
2021/12/07 11:05:29;;;;;;;72.00;28.40;;;;;;;-0.82;79.00;98314.77;105719;1317;22593;-76
2021/12/07 11:07:58;;;;;;;63.90;25.70;;;;;;;-0.82;78.83;98318.39;105755;1320;22648;-76
2021/12/07 11:10:31;;;;;;;55.30;24.40;;;;;;;-0.82;78.96;98315.29;105747;1319;22617;-76
2021/12/07 11:13:18;;;;;;;58.80;28.00;;;;;;;-0.80;79.25;98313.04;105781;1320;26815;-76
2021/12/07 11:16:02;;;;;;;72.80;34.70;;;;;;;-0.83;79.61;98314.14;105833;1319;22694;-76
2021/12/07 11:18:42;;;;;;;60.00;28.50;;;;;;;-0.83;79.68;98318.75;105936;1319;25280;-77
2021/12/07 11:21:16;;;;;;;59.50;25.50;;;;;;;-0.86;79.63;98325.64;105821;1320;22691;-76
2021/12/07 11:23:46;;;;;;;84.10;32.20;;;;;;;-0.87;79.43;98323.97;105805;1317;22658;-78
2021/12/07 11:31:49;;;;;;;76.60;32.40;;;;;;;-0.91;79.24;98313.81;105810;1314;23391;-76
2021/12/07 11:34:27;;;;;;;61.50;28.90;;;;;;;-0.91;79.77;98314.33;105802;1316;22579;-76
2021/12/07 11:36:55;;;;;;;64.50;29.80;;;;;;;-0.92;80.04;98319.66;105815;1316;22522;-76
2021/12/07 11:39:25;;;;;;;75.20;37.90;;;;;;;-0.94;80.09;98317.65;105818;1316;22669;-76
2021/12/07 11:42:04;;;;;;;65.70;30.10;;;;;;;-0.93;79.92;98320.37;105787;1316;24246;-77
2021/12/07 11:44:34;;;;;;;69.20;31.60;;;;;;;-0.92;79.56;98325.29;105800;1317;22625;-76
2021/12/07 11:47:03;;;;;;;62.70;29.50;;;;;;;-0.92;79.47;98327.34;105545;1317;22587;-76
2021/12/07 11:49:34;;;;;;;59.70;26.60;;;;;;;-0.90;79.31;98326.77;105750;1317;22636;-76
2021/12/07 11:52:04;;;;;;;68.50;34.70;;;;;;;-0.87;79.45;98326.53;105796;1317;25514;-76
2021/12/07 11:54:38;;;;;;;61.20;28.60;;;;;;;-0.82;79.79;98329.15;105808;1314;25476;-77
2021/12/07 11:57:08;;;;;;;62.80;30.30;;;;;;;-0.82;80.06;98334.78;105789;1317;24350;-77
2021/12/07 11:59:36;;;;;;;62.90;28.90;;;;;;;-0.84;80.14;98338.27;105781;1315;22708;-76
2021/12/07 12:02:03;;;;;;;146.40;69.10;;;;;;;-0.86;79.63;98334.18;105799;1316;24294;-76
2021/12/07 12:04:31;;;;;;;85.20;41.30;;;;;;;-0.90;79.47;98335.83;105766;1317;22916;-76
2021/12/07 12:07:00;;;;;;;93.40;51.80;;;;;;;-0.95;79.36;98336.13;105801;1316;22597;-76
2021/12/07 12:09:28;;;;;;;70.20;33.90;;;;;;;-1.00;79.45;98331.81;105815;1317;22559;-76
2021/12/07 12:12:22;;;;;;;76.50;34.10;;;;;;;-1.01;79.30;98328.41;105852;1314;22640;-76
2021/12/07 12:15:07;;;;;;;;;;;;;;;-0.96;79.45;98332.05;105851;1316;22618;-77
2021/12/07 12:17:46;;;;;;;64.90;27.80;;;;;;;-0.96;79.55;98331.54;105821;1315;25373;-77
2021/12/07 12:20:29;;;;;;;81.40;37.80;;;;;;;-1.00;80.10;98331.65;105848;1317;22607;-75
2021/12/07 12:23:11;;;;;;;;;;;;;;;-1.00;80.18;98338.30;105855;1317;22540;-77
2021/12/07 12:25:38;;;;;;;86.40;38.30;;;;;;;-0.97;79.96;98341.13;105709;1317;22623;-77
2021/12/07 12:28:05;;;;;;;80.20;36.20;;;;;;;-0.99;79.84;98343.94;105724;1318;22624;-76
2021/12/07 12:30:37;;;;;;;67.20;31.10;;;;;;;-0.99;79.45;98345.48;105676;1318;25927;-77
2021/12/07 12:33:08;;;;;;;61.30;29.60;;;;;;;-1.01;79.44;98345.84;105593;1319;22582;-75
2021/12/07 12:35:54;;;;;;;72.60;35.70;;;;;;;-0.97;79.26;98345.41;105673;1316;22588;-75
2021/12/07 12:38:22;;;;;;;149.00;48.90;;;;;;;-0.89;79.23;98346.59;105815;1317;22643;-75
2021/12/07 12:41:01;;;;;;;62.60;27.40;;;;;;;-0.89;79.47;98345.55;105768;1317;25494;-75
2021/12/07 12:43:53;;;;;;;94.50;37.00;;;;;;;-0.86;79.99;98345.65;105825;1316;22590;-75
2021/12/07 12:46:26;;;;;;;74.80;35.70;;;;;;;-0.87;79.78;98349.77;105836;1316;25271;-75
2021/12/07 12:48:54;;;;;;;;;;;;;;;-0.86;79.41;98350.94;105873;1317;22663;-75
2021/12/07 12:51:28;;;;;;;56.00;29.00;;;;;;;-0.88;79.36;98354.92;105769;1315;22697;-75
2021/12/07 12:53:56;;;;;;;51.30;24.60;;;;;;;-0.90;79.13;98356.53;105784;1316;22568;-75
2021/12/07 12:56:30;;;;;;;71.60;34.60;;;;;;;-0.93;78.94;98356.59;105829;1317;22582;-74
2021/12/07 12:58:58;;;;;;;;;;;;;;;-0.91;78.76;98356.90;105821;1316;22684;-77
2021/12/07 13:01:28;;;;;;;60.40;28.30;;;;;;;-0.89;78.75;98356.48;105820;1310;22577;-77